createdAt,value
2023-05-11T00:00:36.425Z,15.18
2023-05-11T00:03:03.084Z,15.20
2023-05-11T00:05:29.624Z,15.11
2023-05-11T00:07:56.083Z,15.14
2023-05-11T00:10:22.739Z,15.14
2023-05-11T00:12:49.147Z,15.08
2023-05-11T00:15:15.551Z,15.04
2023-05-11T00:17:41.953Z,15.03
2023-05-11T00:20:08.808Z,15.07
2023-05-11T00:22:35.336Z,15.06
2023-05-11T00:25:01.784Z,15.09
2023-05-11T00:27:28.202Z,15.11
2023-05-11T00:29:54.591Z,15.13
2023-05-11T00:32:21.284Z,15.07
2023-05-11T00:34:47.697Z,15.11
2023-05-11T00:37:14.067Z,15.20
2023-05-11T00:39:40.779Z,15.07
2023-05-11T00:42:07.640Z,15.01
2023-05-11T00:44:34.076Z,15.01
2023-05-11T00:47:00.655Z,14.81
2023-05-11T00:49:27.663Z,14.96
2023-05-11T00:51:54.088Z,14.83
2023-05-11T00:54:20.513Z,14.76
2023-05-11T00:56:48.197Z,14.66
2023-05-11T00:59:14.680Z,14.70
2023-05-11T01:01:41.250Z,14.58
2023-05-11T01:04:07.864Z,14.45
2023-05-11T01:06:44.572Z,14.54
2023-05-11T01:09:21.844Z,14.28
2023-05-11T01:11:56.800Z,14.28
2023-05-11T01:14:42.132Z,14.39
2023-05-11T01:17:13.556Z,14.49
2023-05-11T01:19:57.990Z,14.62
2023-05-11T01:22:54.237Z,14.43
2023-05-11T01:25:29.654Z,14.45
2023-05-11T01:28:14.707Z,14.51
2023-05-11T01:30:49.261Z,14.58
2023-05-11T01:33:16.531Z,14.52
2023-05-11T01:35:53.467Z,14.42
2023-05-11T01:38:21.737Z,14.55
2023-05-11T01:40:53.927Z,14.65
2023-05-11T01:43:21.479Z,14.61
2023-05-11T01:45:51.228Z,14.43
2023-05-11T01:48:21.505Z,14.56
2023-05-11T01:50:48.720Z,14.55
2023-05-11T01:53:15.911Z,14.47
2023-05-11T01:55:43.014Z,14.40
2023-05-11T01:58:10.687Z,14.39
2023-05-11T02:00:37.790Z,14.33
2023-05-11T02:03:06.043Z,14.27
2023-05-11T02:05:34.975Z,14.41
2023-05-11T02:08:03.260Z,14.36
2023-05-11T02:10:30.120Z,14.39
2023-05-11T02:12:56.643Z,14.38
2023-05-11T02:15:24.047Z,14.34
2023-05-11T02:17:51.225Z,14.22
2023-05-11T02:20:18.444Z,14.19
2023-05-11T02:22:45.403Z,14.16
2023-05-11T02:25:12.733Z,14.02
2023-05-11T02:27:39.438Z,13.96
2023-05-11T02:30:08.145Z,13.94
2023-05-11T02:32:36.099Z,13.90
2023-05-11T02:35:08.768Z,14.03
2023-05-11T02:37:39.999Z,14.13
2023-05-11T02:40:12.327Z,14.23
2023-05-11T02:42:40.198Z,14.00
2023-05-11T02:45:08.890Z,14.06
2023-05-11T02:47:46.360Z,13.85
2023-05-11T02:50:13.440Z,13.88
2023-05-11T02:52:44.750Z,13.97
2023-05-11T02:55:11.917Z,14.05
2023-05-11T02:57:39.000Z,13.96
2023-05-11T03:00:06.553Z,13.91
2023-05-11T03:02:33.092Z,13.81
2023-05-11T03:04:59.583Z,13.84
2023-05-11T03:07:26.086Z,13.90
2023-05-11T03:09:52.836Z,13.84
2023-05-11T03:12:20.553Z,13.92
2023-05-11T03:14:47.857Z,13.86
2023-05-11T03:17:14.967Z,13.95
2023-05-11T03:19:41.933Z,13.94
2023-05-11T03:22:09.684Z,13.93
2023-05-11T03:24:36.398Z,13.88
2023-05-11T03:27:04.054Z,13.87
2023-05-11T03:29:31.830Z,13.87
2023-05-11T03:31:58.318Z,13.84
2023-05-11T03:34:24.827Z,13.91
2023-05-11T03:36:52.655Z,13.87
2023-05-11T03:39:20.204Z,13.85
2023-05-11T03:41:49.572Z,13.83
2023-05-11T03:44:19.543Z,13.88
2023-05-11T03:46:46.222Z,13.61
2023-05-11T03:49:13.679Z,13.77
2023-05-11T03:51:41.304Z,13.65
2023-05-11T03:54:08.067Z,13.53
2023-05-11T03:56:41.011Z,13.37
2023-05-11T03:59:09.220Z,13.61
2023-05-11T04:01:35.608Z,13.51
2023-05-11T04:04:02.081Z,13.70
2023-05-11T04:06:28.539Z,13.62
2023-05-11T04:08:54.905Z,13.69
2023-05-11T04:11:22.103Z,13.75
2023-05-11T04:13:48.500Z,14.01
2023-05-11T04:16:14.958Z,13.91
2023-05-11T04:18:41.430Z,14.10
2023-05-11T04:21:07.831Z,13.92
2023-05-11T04:23:34.270Z,13.92
2023-05-11T04:26:00.717Z,14.10
2023-05-11T04:28:27.942Z,14.13
2023-05-11T04:30:55.564Z,14.34
2023-05-11T04:33:22.338Z,14.39
2023-05-11T04:35:52.942Z,14.39
2023-05-11T04:38:19.766Z,14.32
2023-05-11T04:40:47.753Z,14.46
2023-05-11T04:43:14.910Z,14.53
2023-05-11T04:45:41.435Z,14.50
2023-05-11T04:48:07.995Z,14.46
2023-05-11T04:50:34.386Z,14.39
2023-05-11T04:53:00.781Z,14.39
2023-05-11T04:55:27.144Z,14.33
2023-05-11T04:57:53.520Z,14.40
2023-05-11T05:00:20.852Z,14.35
2023-05-11T05:02:47.602Z,14.31
2023-05-11T05:05:14.018Z,14.30
2023-05-11T05:07:40.406Z,14.34
2023-05-11T05:10:08.866Z,14.35
2023-05-11T05:12:36.603Z,14.39
2023-05-11T05:15:03.875Z,14.25
2023-05-11T05:17:30.225Z,14.25
2023-05-11T05:19:57.914Z,14.41
2023-05-11T05:22:25.156Z,14.51
2023-05-11T05:24:51.594Z,14.62
2023-05-11T05:27:18.146Z,14.51
2023-05-11T05:29:44.542Z,14.55
2023-05-11T05:32:10.879Z,14.31
2023-05-11T05:34:37.254Z,14.38
2023-05-11T05:37:04.141Z,13.89
2023-05-11T05:39:30.684Z,14.08
2023-05-11T05:41:57.089Z,14.31
2023-05-11T05:44:23.504Z,14.45
2023-05-11T05:46:49.863Z,14.58
2023-05-11T05:49:16.380Z,14.69
2023-05-11T05:51:42.753Z,14.78
2023-05-11T05:54:09.179Z,14.86
2023-05-11T05:56:35.546Z,14.71
2023-05-11T05:59:01.950Z,14.73
2023-05-11T06:01:28.313Z,14.58
2023-05-11T06:03:55.756Z,14.51
2023-05-11T06:06:22.284Z,14.53
2023-05-11T06:08:48.624Z,14.54
2023-05-11T06:11:15.909Z,14.63
2023-05-11T06:13:42.300Z,14.60
2023-05-11T06:16:08.736Z,14.73
2023-05-11T06:18:36.068Z,14.13
2023-05-11T06:21:02.484Z,14.41
2023-05-11T06:23:28.921Z,14.41
2023-05-11T06:25:55.376Z,14.90
2023-05-11T06:28:24.340Z,15.23
2023-05-11T06:30:50.775Z,15.18
2023-05-11T06:33:17.144Z,15.54
2023-05-11T06:35:43.649Z,14.85
2023-05-11T06:38:10.002Z,14.82
2023-05-11T06:40:36.402Z,14.92
2023-05-11T06:43:02.812Z,15.09
2023-05-11T06:45:29.349Z,15.37
2023-05-11T06:47:55.975Z,14.68
2023-05-11T06:50:23.418Z,14.74
2023-05-11T06:52:51.525Z,14.80
2023-05-11T06:55:17.919Z,14.87
2023-05-11T06:57:44.301Z,15.23
2023-05-11T07:00:10.986Z,15.48
2023-05-11T07:02:37.468Z,15.30
2023-05-11T07:05:04.144Z,15.56
2023-05-11T07:07:30.648Z,15.44
2023-05-11T07:09:57.549Z,15.69
2023-05-11T07:12:24.801Z,15.81
2023-05-11T07:14:51.169Z,15.81
2023-05-11T07:17:17.615Z,15.82
2023-05-11T07:19:44.313Z,15.76
2023-05-11T07:22:11.497Z,16.01
2023-05-11T07:24:39.208Z,15.94
2023-05-11T07:27:05.654Z,15.51
2023-05-11T07:29:32.012Z,15.56
2023-05-11T07:31:58.428Z,15.78
2023-05-11T07:34:24.904Z,15.71
2023-05-11T07:36:51.374Z,15.88
2023-05-11T07:39:17.850Z,15.72
2023-05-11T07:41:44.233Z,15.75
2023-05-11T07:44:11.226Z,15.25
2023-05-11T07:46:37.763Z,15.44
2023-05-11T07:49:15.770Z,15.84
2023-05-11T07:51:47.052Z,15.89
2023-05-11T07:54:13.635Z,16.40
2023-05-11T07:56:40.065Z,16.46
2023-05-11T07:59:06.439Z,16.34
2023-05-11T08:01:33.350Z,16.31
2023-05-11T08:04:00.264Z,16.10
2023-05-11T08:06:26.633Z,16.24
2023-05-11T08:08:53.029Z,16.50
2023-05-11T08:11:19.417Z,16.73
2023-05-11T08:13:45.829Z,16.73
2023-05-11T08:16:12.403Z,16.58
2023-05-11T08:18:38.917Z,16.76
2023-05-11T08:21:05.598Z,16.48
2023-05-11T08:23:31.965Z,16.51
2023-05-11T08:25:58.370Z,16.68
2023-05-11T08:28:24.754Z,16.72
2023-05-11T08:30:58.125Z,16.63
2023-05-11T08:35:54.337Z,17.22
2023-05-11T08:38:20.693Z,16.86
2023-05-11T08:40:48.529Z,16.86
2023-05-11T08:43:18.398Z,17.17
2023-05-11T08:45:48.281Z,17.16
2023-05-11T08:48:17.617Z,16.88
2023-05-11T08:50:45.501Z,17.23
2023-05-11T08:53:12.284Z,17.61
2023-05-11T08:55:40.466Z,17.28
2023-05-11T08:58:07.134Z,17.29
2023-05-11T09:00:34.282Z,17.19
2023-05-11T09:03:01.008Z,17.80
2023-05-11T09:05:28.023Z,17.73
2023-05-11T09:07:57.666Z,17.67
2023-05-11T09:10:24.161Z,17.83
2023-05-11T09:12:50.563Z,17.80
2023-05-11T09:15:16.958Z,18.23
2023-05-11T09:17:43.357Z,18.56
2023-05-11T09:20:10.248Z,19.33
2023-05-11T09:22:46.636Z,19.56
2023-05-11T09:25:14.576Z,19.02
2023-05-11T09:27:44.675Z,18.43
2023-05-11T09:30:22.076Z,18.14
2023-05-11T09:32:55.641Z,17.77
2023-05-11T09:35:29.770Z,17.42
2023-05-11T09:38:05.486Z,17.80
2023-05-11T09:40:34.561Z,18.21
2023-05-11T09:43:03.275Z,18.39
2023-05-11T09:45:39.507Z,18.29
2023-05-11T09:48:07.379Z,18.13
2023-05-11T09:50:35.022Z,17.59
2023-05-11T09:53:01.556Z,17.56
2023-05-11T09:55:27.974Z,17.51
2023-05-11T09:57:59.069Z,17.34
2023-05-11T10:00:25.625Z,17.90
2023-05-11T10:03:05.645Z,18.21
2023-05-11T10:05:33.703Z,18.71
2023-05-11T10:08:02.224Z,18.26
2023-05-11T10:10:29.792Z,18.34
2023-05-11T10:12:59.157Z,18.30
2023-05-11T10:15:28.209Z,18.78
2023-05-11T10:17:56.540Z,18.54
2023-05-11T10:20:23.053Z,18.24
2023-05-11T10:22:52.441Z,18.65
2023-05-11T10:25:21.441Z,18.69
2023-05-11T10:27:48.110Z,18.59
2023-05-11T10:30:14.827Z,18.10
2023-05-11T10:32:41.540Z,18.40
2023-05-11T10:35:08.771Z,18.57
2023-05-11T10:37:35.443Z,18.34
2023-05-11T10:40:01.965Z,18.45
2023-05-11T10:43:02.258Z,18.71
2023-05-11T10:45:28.615Z,18.51
2023-05-11T10:48:25.974Z,18.69
2023-05-11T10:51:11.175Z,18.92
2023-05-11T10:53:37.564Z,19.01
2023-05-11T10:56:24.212Z,18.89
2023-05-11T10:59:24.957Z,19.17
2023-05-11T11:01:52.369Z,18.75
2023-05-11T11:04:20.421Z,18.82
2023-05-11T11:06:46.963Z,18.77
2023-05-11T11:09:15.485Z,18.87
2023-05-11T11:11:46.360Z,18.76
2023-05-11T11:14:14.617Z,18.18
2023-05-11T11:16:43.629Z,17.47
2023-05-11T11:19:29.505Z,17.05
2023-05-11T11:21:56.903Z,17.11
2023-05-11T11:24:38.489Z,17.18
2023-05-11T11:27:06.086Z,16.98
2023-05-11T11:29:34.554Z,16.89
2023-05-11T11:32:19.434Z,17.11
2023-05-11T11:34:47.077Z,17.07
2023-05-11T11:37:14.953Z,17.16
2023-05-11T11:39:41.244Z,17.15
2023-05-11T11:42:19.072Z,17.47
2023-05-11T11:44:45.949Z,17.27
2023-05-11T11:47:20.680Z,17.28
2023-05-11T11:49:51.512Z,17.50
2023-05-11T11:52:38.128Z,17.50
2023-05-11T11:55:05.109Z,17.29
2023-05-11T11:57:34.314Z,17.34
2023-05-11T12:00:06.582Z,17.09
2023-05-11T12:02:34.637Z,16.91
2023-05-11T12:05:02.384Z,16.81
2023-05-11T12:07:33.267Z,16.78
2023-05-11T12:10:03.847Z,16.61
2023-05-11T12:12:30.493Z,16.61
2023-05-11T12:14:57.728Z,16.50
2023-05-11T12:17:29.404Z,16.50
2023-05-11T12:20:11.989Z,16.49
2023-05-11T12:22:38.368Z,16.65
2023-05-11T12:25:08.409Z,16.86
2023-05-11T12:27:34.832Z,16.95
2023-05-11T12:30:01.205Z,16.89
2023-05-11T12:32:31.379Z,17.09
2023-05-11T12:35:02.833Z,17.34
2023-05-11T12:37:30.309Z,17.33
2023-05-11T12:39:57.479Z,17.46
2023-05-11T12:42:23.988Z,17.19
2023-05-11T12:44:51.008Z,17.00
2023-05-11T12:47:17.683Z,17.00
2023-05-11T12:49:45.655Z,17.04
2023-05-11T12:52:13.375Z,16.86
2023-05-11T12:54:47.757Z,16.82
2023-05-11T12:57:28.781Z,16.90
2023-05-11T13:00:15.697Z,16.92
2023-05-11T13:02:52.241Z,17.05
2023-05-11T13:05:23.307Z,16.88
2023-05-11T13:07:58.589Z,16.83
2023-05-11T13:10:26.706Z,16.75
2023-05-11T13:12:54.171Z,16.71
2023-05-11T13:15:22.535Z,16.80
2023-05-11T13:17:55.976Z,16.58
2023-05-11T13:20:30.803Z,16.58
2023-05-11T13:23:03.265Z,16.21
2023-05-11T13:25:29.642Z,16.26
2023-05-11T13:27:56.014Z,16.08
2023-05-11T13:30:22.510Z,15.88
2023-05-11T13:32:48.928Z,16.02
2023-05-11T13:35:15.544Z,16.05
2023-05-11T13:37:41.901Z,15.96
2023-05-11T13:40:10.392Z,16.03
2023-05-11T13:42:37.396Z,16.03
2023-05-11T13:45:04.150Z,16.06
2023-05-11T13:47:31.073Z,16.09
2023-05-11T13:49:57.474Z,16.06
2023-05-11T13:52:23.850Z,16.23
2023-05-11T13:54:50.326Z,16.18
2023-05-11T13:57:16.871Z,16.35
2023-05-11T13:59:43.266Z,16.31
2023-05-11T14:02:10.043Z,16.07
2023-05-11T14:04:36.609Z,16.08
2023-05-11T14:07:03.061Z,16.15
2023-05-11T14:09:30.700Z,16.13
2023-05-11T14:11:59.017Z,16.14
2023-05-11T14:14:25.402Z,16.05
2023-05-11T14:16:51.803Z,16.14
2023-05-11T14:19:18.244Z,16.27
2023-05-11T14:21:44.916Z,16.26
2023-05-11T14:24:12.776Z,16.23
2023-05-11T14:26:40.033Z,16.26
2023-05-11T14:29:06.909Z,16.32
2023-05-11T14:31:35.026Z,16.46
2023-05-11T14:34:02.840Z,16.56
2023-05-11T14:36:29.236Z,16.54
2023-05-11T14:38:55.794Z,16.72
2023-05-11T14:41:22.165Z,16.83
2023-05-11T14:43:49.293Z,17.03
2023-05-11T14:46:16.473Z,16.98
2023-05-11T14:48:43.307Z,17.00
2023-05-11T14:51:09.696Z,17.03
2023-05-11T14:53:36.171Z,17.14
2023-05-11T14:56:02.613Z,16.97
2023-05-11T14:58:29.319Z,17.06
2023-05-11T15:00:55.771Z,17.09
2023-05-11T15:03:22.550Z,16.96
2023-05-11T15:05:49.046Z,16.63
2023-05-11T15:08:28.413Z,16.28
2023-05-11T15:10:55.805Z,16.20
2023-05-11T15:13:22.553Z,16.19
2023-05-11T15:15:49.008Z,16.17
2023-05-11T15:18:16.513Z,16.18
2023-05-11T15:20:43.832Z,16.29
2023-05-11T15:23:11.754Z,16.52
2023-05-11T15:25:38.288Z,16.68
2023-05-11T15:28:04.722Z,16.51
2023-05-11T15:30:32.756Z,16.73
2023-05-11T15:32:59.460Z,16.74
2023-05-11T15:35:25.908Z,16.86
2023-05-11T15:37:52.350Z,16.91
2023-05-11T15:40:18.753Z,16.99
2023-05-11T15:42:45.122Z,17.13
2023-05-11T15:45:11.798Z,17.20
2023-05-11T15:47:38.233Z,17.24
2023-05-11T15:50:05.991Z,17.23
2023-05-11T15:52:32.387Z,17.12
2023-05-11T15:54:58.797Z,17.23
2023-05-11T15:57:25.210Z,17.07
2023-05-11T15:59:51.653Z,16.80
2023-05-11T16:02:18.089Z,16.76
2023-05-11T16:04:44.543Z,16.78
2023-05-11T16:07:10.961Z,16.85
2023-05-11T16:09:37.349Z,16.64
2023-05-11T16:12:03.893Z,16.68
2023-05-11T16:14:30.494Z,16.64
2023-05-11T16:16:57.014Z,16.71
2023-05-11T16:19:23.420Z,16.58
2023-05-11T16:21:49.852Z,16.73
2023-05-11T16:24:16.227Z,16.76
2023-05-11T16:26:42.742Z,16.80
2023-05-11T16:29:09.112Z,16.83
2023-05-11T16:31:35.991Z,16.77
2023-05-11T16:34:03.184Z,16.89
2023-05-11T16:36:30.303Z,16.97
2023-05-11T16:38:56.682Z,16.85
2023-05-11T16:41:25.274Z,16.89
2023-05-11T16:43:51.710Z,16.92
2023-05-11T16:46:18.112Z,16.93
2023-05-11T16:48:44.540Z,16.96
2023-05-11T16:51:10.959Z,16.78
2023-05-11T16:53:37.917Z,16.79
2023-05-11T16:56:04.657Z,16.86
2023-05-11T16:58:31.051Z,17.00
2023-05-11T17:00:58.993Z,17.02
2023-05-11T17:03:26.104Z,17.02
2023-05-11T17:05:52.902Z,16.70
2023-05-11T17:08:19.282Z,16.84
2023-05-11T17:10:46.132Z,16.70
2023-05-11T17:13:12.580Z,16.61
2023-05-11T17:15:39.001Z,16.48
2023-05-11T17:18:05.481Z,16.30
2023-05-11T17:20:32.381Z,16.02
2023-05-11T17:22:59.084Z,15.97
2023-05-11T17:25:25.581Z,15.68
2023-05-11T17:27:51.953Z,15.58
2023-05-11T17:30:18.655Z,15.44
2023-05-11T17:32:45.600Z,15.61
2023-05-11T17:35:12.527Z,15.77
2023-05-11T17:37:39.535Z,15.79
2023-05-11T17:40:07.334Z,15.83
2023-05-11T17:42:34.721Z,15.90
2023-05-11T17:45:01.204Z,15.85
2023-05-11T17:47:27.664Z,16.02
2023-05-11T17:49:54.162Z,16.01
2023-05-11T17:52:20.622Z,15.95
2023-05-11T17:54:47.359Z,15.94
2023-05-11T17:57:13.742Z,15.99
2023-05-11T17:59:40.113Z,16.06
2023-05-11T18:02:07.433Z,15.79
2023-05-11T18:04:33.859Z,15.69
2023-05-11T18:07:00.285Z,15.79
2023-05-11T18:09:26.684Z,15.90
2023-05-11T18:11:53.146Z,15.80
2023-05-11T18:14:19.529Z,15.87
2023-05-11T18:16:49.112Z,15.85
2023-05-11T18:19:15.557Z,15.91
2023-05-11T18:21:42.440Z,15.92
2023-05-11T18:24:09.581Z,15.72
2023-05-11T18:26:36.585Z,15.77
2023-05-11T18:29:02.961Z,15.61
2023-05-11T18:31:29.348Z,15.71
2023-05-11T18:33:56.750Z,15.86
2023-05-11T18:36:23.381Z,15.85
2023-05-11T18:38:49.863Z,15.87
2023-05-11T18:41:16.299Z,15.85
2023-05-11T18:43:44.114Z,15.71
2023-05-11T18:46:10.582Z,15.70
2023-05-11T18:48:37.274Z,15.66
2023-05-11T18:51:03.677Z,15.78
2023-05-11T18:53:30.156Z,15.70
2023-05-11T18:55:56.513Z,15.83
2023-05-11T18:58:23.522Z,15.69
2023-05-11T19:00:51.064Z,15.56
2023-05-11T19:03:18.947Z,15.46
2023-05-11T19:05:45.429Z,15.41
2023-05-11T19:08:12.281Z,15.44
2023-05-11T19:10:40.287Z,15.42
2023-05-11T19:13:07.542Z,15.38
2023-05-11T19:15:34.099Z,15.41
2023-05-11T19:18:00.504Z,15.14
2023-05-11T19:20:26.984Z,15.16
2023-05-11T19:22:53.355Z,15.12
2023-05-11T19:25:19.727Z,15.03
2023-05-11T19:27:46.361Z,14.94
2023-05-11T19:30:13.003Z,15.06
2023-05-11T19:32:39.426Z,14.99
2023-05-11T19:35:06.489Z,14.99
2023-05-11T19:37:33.969Z,14.87
2023-05-11T19:40:19.320Z,14.79
2023-05-11T19:42:46.730Z,14.79
2023-05-11T19:45:14.911Z,14.93
2023-05-11T19:47:41.449Z,14.78
2023-05-11T19:50:09.146Z,14.83
2023-05-11T19:52:36.523Z,14.83
2023-05-11T19:55:06.491Z,14.94
2023-05-11T19:57:37.033Z,14.89
2023-05-11T20:00:05.264Z,14.92
2023-05-11T20:02:32.343Z,14.89
2023-05-11T20:04:59.525Z,14.91
2023-05-11T20:07:27.403Z,14.91
2023-05-11T20:09:54.289Z,14.88
2023-05-11T20:12:20.755Z,14.81
2023-05-11T20:14:47.122Z,14.91
2023-05-11T20:17:13.525Z,14.91
2023-05-11T20:19:40.003Z,15.02
2023-05-11T20:22:06.479Z,15.10
2023-05-11T20:24:33.337Z,15.11
2023-05-11T20:27:01.023Z,15.23
2023-05-11T20:29:27.394Z,15.02
2023-05-11T20:31:53.887Z,14.92
2023-05-11T20:34:20.374Z,15.04
2023-05-11T20:36:48.679Z,14.97
2023-05-11T20:39:16.559Z,14.82
2023-05-11T20:41:42.945Z,15.02
2023-05-11T20:44:13.581Z,15.02
2023-05-11T20:46:40.923Z,14.95
2023-05-11T20:49:07.323Z,14.80
2023-05-11T20:51:35.060Z,14.87
2023-05-11T20:54:01.509Z,14.96
2023-05-11T20:56:27.888Z,14.89
2023-05-11T20:58:55.154Z,14.87
2023-05-11T21:01:22.501Z,14.86
2023-05-11T21:03:48.904Z,14.69
2023-05-11T21:06:15.873Z,14.67
2023-05-11T21:08:42.256Z,14.53
2023-05-11T21:11:08.944Z,14.75
2023-05-11T21:13:36.121Z,14.70
2023-05-11T21:16:02.794Z,14.74
2023-05-11T21:18:32.016Z,14.65
2023-05-11T21:20:59.010Z,14.57
2023-05-11T21:23:25.385Z,14.67
2023-05-11T21:25:53.245Z,14.77
2023-05-11T21:28:19.649Z,14.80
2023-05-11T21:30:46.247Z,14.83
2023-05-11T21:33:14.502Z,14.81
2023-05-11T21:35:40.902Z,14.89
2023-05-11T21:38:07.292Z,14.88
2023-05-11T21:40:33.684Z,14.72
2023-05-11T21:43:00.145Z,14.68
2023-05-11T21:45:26.644Z,14.67
2023-05-11T21:47:53.091Z,14.67
2023-05-11T21:50:19.789Z,14.65
2023-05-11T21:52:46.300Z,14.52
2023-05-11T21:55:12.743Z,14.44
2023-05-11T21:57:39.113Z,14.32
2023-05-11T22:00:08.520Z,14.32
2023-05-11T22:02:35.198Z,14.31
2023-05-11T22:05:01.926Z,14.44
2023-05-11T22:07:28.312Z,14.33
2023-05-11T22:09:54.700Z,14.27
2023-05-11T22:12:21.150Z,14.26
2023-05-11T22:14:47.567Z,14.38
2023-05-11T22:17:13.937Z,14.27
2023-05-11T22:19:40.325Z,14.13
2023-05-11T22:22:06.719Z,14.08
2023-05-11T22:24:33.174Z,14.04
2023-05-11T22:26:59.616Z,14.08
2023-05-11T22:29:25.982Z,14.14
2023-05-11T22:31:52.399Z,14.04
2023-05-11T22:34:21.840Z,14.11
2023-05-11T22:36:48.289Z,14.15
2023-05-11T22:39:14.681Z,14.15
2023-05-11T22:41:41.081Z,13.97
2023-05-11T22:44:08.337Z,14.04
2023-05-11T22:46:34.725Z,14.05
2023-05-11T22:49:01.105Z,14.08
2023-05-11T22:51:28.117Z,13.97
2023-05-11T22:53:54.908Z,13.97
2023-05-11T22:56:21.282Z,13.85
2023-05-11T22:58:47.694Z,13.81
2023-05-11T23:01:14.188Z,13.99
2023-05-11T23:03:40.694Z,14.08
2023-05-11T23:06:07.105Z,14.04
2023-05-11T23:08:33.476Z,14.05
2023-05-11T23:10:59.901Z,14.06
2023-05-11T23:13:26.285Z,14.17
2023-05-11T23:15:52.693Z,14.07
2023-05-11T23:18:19.165Z,13.96
2023-05-11T23:20:45.573Z,14.01
2023-05-11T23:23:12.081Z,13.90
2023-05-11T23:25:38.509Z,13.68
2023-05-11T23:28:11.218Z,13.87
2023-05-11T23:30:38.078Z,13.88
2023-05-11T23:33:04.536Z,13.57
2023-05-11T23:35:31.108Z,13.83
2023-05-11T23:37:57.494Z,14.26
2023-05-11T23:40:25.978Z,14.44
2023-05-11T23:42:52.655Z,14.54
2023-05-11T23:45:19.022Z,14.53
2023-05-11T23:47:45.587Z,14.58
2023-05-11T23:50:13.390Z,14.56
2023-05-11T23:52:39.764Z,14.31
2023-05-11T23:55:07.583Z,14.04
2023-05-11T23:57:34.155Z,13.98
